createdAt,value
2018-06-13T00:00:41.595Z,68.88
2018-06-13T00:03:10.761Z,70.58
2018-06-13T00:05:39.994Z,69.54
2018-06-13T00:08:09.481Z,69.52
2018-06-13T00:10:38.620Z,69.30
2018-06-13T00:13:07.766Z,69.03
2018-06-13T00:15:36.901Z,69.02
2018-06-13T00:18:06.341Z,69.15
2018-06-13T00:20:35.461Z,68.66
2018-06-13T00:23:04.601Z,68.60
2018-06-13T00:25:33.734Z,69.29
2018-06-13T00:28:02.853Z,69.19
2018-06-13T00:30:31.993Z,68.58
2018-06-13T00:33:01.113Z,68.61
2018-06-13T00:35:30.217Z,68.94
2018-06-13T00:37:59.334Z,69.09
2018-06-13T00:40:28.437Z,69.39
2018-06-13T00:42:58.882Z,68.64
2018-06-13T00:45:28.018Z,69.22
2018-06-13T00:47:57.117Z,68.54
2018-06-13T00:50:26.254Z,69.60
2018-06-13T00:52:55.366Z,69.55
2018-06-13T00:55:24.569Z,68.53
2018-06-13T00:57:53.686Z,69.42
2018-06-13T01:00:22.870Z,68.94
2018-06-13T01:02:52.006Z,69.31
2018-06-13T01:05:21.220Z,69.79
2018-06-13T01:07:50.294Z,69.58
2018-06-13T01:10:19.425Z,69.98
2018-06-13T01:12:48.562Z,69.64
2018-06-13T01:15:17.701Z,69.56
2018-06-13T01:17:46.828Z,69.81
2018-06-13T01:20:16.333Z,69.62
2018-06-13T01:22:45.432Z,69.29
2018-06-13T01:25:14.542Z,68.89
2018-06-13T01:27:43.653Z,70.09
2018-06-13T01:30:12.780Z,69.70
2018-06-13T01:32:41.905Z,70.29
2018-06-13T01:35:11.448Z,67.90
2018-06-13T01:37:40.521Z,67.75
2018-06-13T01:40:09.637Z,67.42
2018-06-13T01:42:38.760Z,66.70
2018-06-13T01:45:08.891Z,66.79
2018-06-13T01:47:38.014Z,67.13
2018-06-13T01:50:07.150Z,66.30
2018-06-13T01:52:36.269Z,65.99
2018-06-13T01:55:05.398Z,66.89
2018-06-13T01:57:34.537Z,67.05
2018-06-13T02:00:03.692Z,65.97
2018-06-13T02:02:32.782Z,66.62
2018-06-13T02:05:01.914Z,66.81
2018-06-13T02:07:31.023Z,67.04
2018-06-13T02:10:00.213Z,66.92
2018-06-13T02:12:29.369Z,67.17
2018-06-13T02:14:58.483Z,68.07
2018-06-13T02:17:27.609Z,67.52
2018-06-13T02:19:56.706Z,66.77
2018-06-13T02:22:27.425Z,68.50
2018-06-13T02:24:56.538Z,68.24
2018-06-13T02:27:25.694Z,67.75
2018-06-13T02:29:54.766Z,68.74
2018-06-13T02:32:23.880Z,69.26
2018-06-13T02:34:52.986Z,68.83
2018-06-13T02:37:22.093Z,69.12
2018-06-13T02:39:51.258Z,69.08
2018-06-13T02:42:20.394Z,68.79
2018-06-13T02:44:49.505Z,69.01
2018-06-13T02:47:19.057Z,69.54
2018-06-13T02:49:48.645Z,69.10
2018-06-13T02:52:17.760Z,69.16
2018-06-13T02:54:46.883Z,68.72
2018-06-13T02:57:15.998Z,70.37
2018-06-13T02:59:45.109Z,70.41
2018-06-13T03:02:14.254Z,70.63
2018-06-13T03:04:43.349Z,70.61
2018-06-13T03:07:12.477Z,70.04
2018-06-13T03:09:41.588Z,69.69
2018-06-13T03:12:10.719Z,70.05
2018-06-13T03:14:39.805Z,69.60
2018-06-13T03:17:08.948Z,69.27
2018-06-13T03:19:38.042Z,69.71
2018-06-13T03:22:07.161Z,69.92
2018-06-13T03:24:36.270Z,69.95
2018-06-13T03:27:05.645Z,69.15
2018-06-13T03:29:34.997Z,69.41
2018-06-13T03:32:04.108Z,68.70
2018-06-13T03:34:33.249Z,69.82
2018-06-13T03:37:02.725Z,70.83
2018-06-13T03:39:31.867Z,70.87
2018-06-13T03:42:00.969Z,70.79
2018-06-13T03:44:30.121Z,71.46
2018-06-13T03:46:59.246Z,71.52
2018-06-13T03:49:34.206Z,71.50
2018-06-13T03:52:03.330Z,71.91
2018-06-13T03:54:32.490Z,72.61
2018-06-13T03:57:01.651Z,72.17
2018-06-13T03:59:30.781Z,72.63
2018-06-13T04:01:59.902Z,72.73
2018-06-13T04:04:29.019Z,72.91
2018-06-13T04:06:58.131Z,72.15
2018-06-13T04:09:27.234Z,71.68
2018-06-13T04:11:56.340Z,72.10
2018-06-13T04:14:25.453Z,71.77
2018-06-13T04:16:54.562Z,72.55
2018-06-13T04:19:23.653Z,72.82
2018-06-13T04:21:52.765Z,73.36
2018-06-13T04:24:21.885Z,72.69
2018-06-13T04:26:50.997Z,73.15
2018-06-13T04:29:20.103Z,73.42
2018-06-13T04:31:49.241Z,73.85
2018-06-13T04:34:18.337Z,73.05
2018-06-13T04:36:47.483Z,72.86
2018-06-13T04:39:16.573Z,73.38
2018-06-13T04:41:45.685Z,73.47
2018-06-13T04:44:14.789Z,73.19
2018-06-13T04:46:43.918Z,73.70
2018-06-13T04:49:13.054Z,73.30
2018-06-13T04:51:42.227Z,72.99
2018-06-13T04:54:11.343Z,72.63
2018-06-13T04:56:40.530Z,73.03
2018-06-13T04:59:12.824Z,73.17
2018-06-13T05:01:41.949Z,72.62
2018-06-13T05:04:11.078Z,73.30
2018-06-13T05:06:40.203Z,73.64
2018-06-13T05:09:11.470Z,72.43
2018-06-13T05:11:40.592Z,73.31
2018-06-13T05:14:09.706Z,73.57
2018-06-13T05:16:38.837Z,73.44
2018-06-13T05:19:07.968Z,73.66
2018-06-13T05:21:37.117Z,73.37
2018-06-13T05:24:06.355Z,73.57
2018-06-13T05:26:35.518Z,73.13
2018-06-13T05:29:04.674Z,72.64
2018-06-13T05:31:33.837Z,72.55
2018-06-13T05:34:08.535Z,72.42
2018-06-13T05:36:37.730Z,72.80
2018-06-13T05:39:08.045Z,73.21
2018-06-13T05:41:38.559Z,72.88
2018-06-13T05:44:07.653Z,72.50
2018-06-13T05:46:36.757Z,71.83
2018-06-13T05:49:05.846Z,72.76
2018-06-13T05:51:34.933Z,72.28
2018-06-13T05:54:04.065Z,71.57
2018-06-13T05:56:33.253Z,71.11
2018-06-13T05:59:02.364Z,71.43
2018-06-13T06:01:31.645Z,70.42
2018-06-13T06:04:00.650Z,70.82
2018-06-13T06:06:29.889Z,70.06
2018-06-13T06:08:59.098Z,70.70
2018-06-13T06:11:28.248Z,70.78
2018-06-13T06:13:57.471Z,69.87
2018-06-13T06:16:26.589Z,70.20
2018-06-13T06:18:55.805Z,70.22
2018-06-13T06:21:24.905Z,70.20
2018-06-13T06:23:54.054Z,70.18
2018-06-13T06:26:23.169Z,69.22
2018-06-13T06:28:52.262Z,69.29
2018-06-13T06:31:21.361Z,69.44
2018-06-13T06:33:50.448Z,69.61
2018-06-13T06:36:19.538Z,69.03
2018-06-13T06:38:48.645Z,68.25
2018-06-13T06:41:17.741Z,68.58
2018-06-13T06:43:46.846Z,65.34
2018-06-13T06:46:15.929Z,65.11
2018-06-13T06:48:45.038Z,64.43
2018-06-13T06:51:14.125Z,64.17
2018-06-13T06:53:43.225Z,65.02
2018-06-13T06:56:12.321Z,64.63
2018-06-13T06:58:41.431Z,63.71
2018-06-13T07:01:10.500Z,65.11
2018-06-13T07:03:39.610Z,63.39
2018-06-13T07:06:08.735Z,63.65
2018-06-13T07:08:37.854Z,63.39
2018-06-13T07:11:06.982Z,62.86
2018-06-13T07:13:36.109Z,62.05
2018-06-13T07:16:05.209Z,61.65
2018-06-13T07:18:34.285Z,62.03
2018-06-13T07:21:03.385Z,61.40
2018-06-13T07:23:32.585Z,61.30
2018-06-13T07:26:01.686Z,61.90
2018-06-13T07:28:30.849Z,59.96
2018-06-13T07:30:59.934Z,60.83
2018-06-13T07:33:29.029Z,60.99
2018-06-13T07:35:58.138Z,62.12
2018-06-13T07:38:27.225Z,60.94
2018-06-13T07:40:56.385Z,62.04
2018-06-13T07:43:25.469Z,62.64
2018-06-13T07:45:54.615Z,62.05
2018-06-13T07:48:23.701Z,60.62
2018-06-13T07:50:53.057Z,61.56
2018-06-13T07:53:22.149Z,61.07
2018-06-13T07:55:51.242Z,59.28
2018-06-13T07:58:20.403Z,58.60
2018-06-13T08:00:49.494Z,60.32
2018-06-13T08:03:18.609Z,60.88
2018-06-13T08:05:47.795Z,59.02
2018-06-13T08:08:16.961Z,59.54
2018-06-13T08:10:45.985Z,61.99
2018-06-13T08:13:15.109Z,61.08
2018-06-13T08:15:44.209Z,62.09
2018-06-13T08:18:13.345Z,57.58
2018-06-13T08:20:42.446Z,58.13
2018-06-13T08:23:11.517Z,58.18
2018-06-13T08:25:40.625Z,58.55
2018-06-13T08:28:09.721Z,57.90
2018-06-13T08:30:38.849Z,58.85
2018-06-13T08:33:07.931Z,57.67
2018-06-13T08:35:37.057Z,57.19
2018-06-13T08:38:06.146Z,56.45
2018-06-13T08:40:35.246Z,56.74
2018-06-13T08:43:04.621Z,57.39
2018-06-13T08:45:33.715Z,57.53
2018-06-13T08:48:02.789Z,57.56
2018-06-13T08:50:31.889Z,57.63
2018-06-13T08:53:01.001Z,56.14
2018-06-13T08:55:30.106Z,56.87
2018-06-13T08:57:59.203Z,57.19
2018-06-13T09:00:28.331Z,55.87
2018-06-13T09:02:58.537Z,57.81
2018-06-13T09:05:27.661Z,56.88
2018-06-13T09:07:57.090Z,56.18
2018-06-13T09:10:26.430Z,56.91
2018-06-13T09:12:55.510Z,57.44
2018-06-13T09:15:24.609Z,58.27
2018-06-13T09:17:53.709Z,59.90
2018-06-13T09:20:22.865Z,60.62
2018-06-13T09:22:52.286Z,60.55
2018-06-13T09:25:21.377Z,59.25
2018-06-13T09:27:50.557Z,60.56
2018-06-13T09:30:19.822Z,60.14
2018-06-13T09:32:48.990Z,59.95
2018-06-13T09:35:18.117Z,58.43
2018-06-13T09:37:47.201Z,58.82
2018-06-13T09:40:16.310Z,59.38
2018-06-13T09:42:45.458Z,59.97
2018-06-13T09:45:14.678Z,60.75
2018-06-13T09:47:43.794Z,60.12
2018-06-13T09:50:12.906Z,59.50
2018-06-13T09:52:42.005Z,60.34
2018-06-13T09:55:11.117Z,60.32
2018-06-13T09:57:40.256Z,60.99
2018-06-13T10:00:14.514Z,60.53
2018-06-13T10:02:43.619Z,61.45
2018-06-13T10:05:12.797Z,60.66
2018-06-13T10:07:41.912Z,60.34
2018-06-13T10:10:11.086Z,60.77
2018-06-13T10:12:40.184Z,60.74
2018-06-13T10:15:09.277Z,60.06
2018-06-13T10:17:38.466Z,60.44
2018-06-13T10:20:07.637Z,60.14
2018-06-13T10:22:36.721Z,60.89
2018-06-13T10:25:05.850Z,60.28
2018-06-13T10:27:38.815Z,60.26
2018-06-13T10:30:07.979Z,59.35
2018-06-13T10:32:37.134Z,59.64
2018-06-13T10:35:06.297Z,59.34
2018-06-13T10:37:35.399Z,59.09
2018-06-13T10:40:04.535Z,58.87
2018-06-13T10:42:33.689Z,59.81
2018-06-13T10:45:02.794Z,57.96
2018-06-13T10:47:31.925Z,57.83
2018-06-13T10:50:01.020Z,57.91
2018-06-13T10:52:30.133Z,58.89
2018-06-13T10:54:59.361Z,59.66
2018-06-13T10:57:28.497Z,57.56
2018-06-13T10:59:57.609Z,57.66
2018-06-13T11:02:26.721Z,57.53
2018-06-13T11:04:55.998Z,57.47
2018-06-13T11:07:25.174Z,58.60
2018-06-13T11:09:54.261Z,56.17
2018-06-13T11:12:23.437Z,58.38
2018-06-13T11:14:52.517Z,57.01
2018-06-13T11:17:21.738Z,58.25
2018-06-13T11:19:51.027Z,57.68
2018-06-13T11:22:20.167Z,57.35
2018-06-13T11:24:49.405Z,57.07
2018-06-13T11:27:18.581Z,55.60
2018-06-13T11:29:51.098Z,56.01
2018-06-13T11:32:20.277Z,57.03
2018-06-13T11:34:53.505Z,56.76
2018-06-13T11:37:22.590Z,57.07
2018-06-13T11:39:51.693Z,56.35
2018-06-13T11:42:20.925Z,56.08
2018-06-13T11:44:50.017Z,57.83
2018-06-13T11:47:19.173Z,56.03
2018-06-13T11:49:48.266Z,55.02
2018-06-13T11:52:17.530Z,54.68
2018-06-13T11:54:46.982Z,57.30
2018-06-13T11:57:16.045Z,56.54
2018-06-13T11:59:45.137Z,57.24
2018-06-13T12:02:14.242Z,57.02
2018-06-13T12:04:43.333Z,58.19
2018-06-13T12:07:12.425Z,56.42
2018-06-13T12:09:41.501Z,57.69
2018-06-13T12:12:10.600Z,58.53
2018-06-13T12:14:39.713Z,58.57
2018-06-13T12:17:08.817Z,59.01
2018-06-13T12:19:37.903Z,59.33
2018-06-13T12:22:06.989Z,58.18
2018-06-13T12:24:36.093Z,58.32
2018-06-13T12:27:05.285Z,59.04
2018-06-13T12:29:34.381Z,58.70
2018-06-13T12:32:03.500Z,59.37
2018-06-13T12:34:32.698Z,59.81
2018-06-13T12:37:01.778Z,59.51
2018-06-13T12:39:30.885Z,59.21
2018-06-13T12:41:59.973Z,58.88
2018-06-13T12:44:29.113Z,59.52
2018-06-13T12:46:58.205Z,58.91
2018-06-13T12:49:27.290Z,59.12
2018-06-13T12:51:56.397Z,59.06
2018-06-13T12:54:25.529Z,59.33
2018-06-13T12:56:54.696Z,59.46
2018-06-13T12:59:23.760Z,59.08
2018-06-13T13:01:52.857Z,58.91
2018-06-13T13:04:21.934Z,57.92
2018-06-13T13:06:51.017Z,59.02
2018-06-13T13:09:20.093Z,57.73
2018-06-13T13:11:49.183Z,58.10
2018-06-13T13:14:18.273Z,57.52
2018-06-13T13:16:48.927Z,58.10
2018-06-13T13:19:18.441Z,57.26
2018-06-13T13:21:47.525Z,57.42
2018-06-13T13:24:16.611Z,58.10
2018-06-13T13:26:45.729Z,57.09
2018-06-13T13:29:14.909Z,56.79
2018-06-13T13:31:44.018Z,56.68
2018-06-13T13:34:13.109Z,56.37
2018-06-13T13:36:42.190Z,56.41
2018-06-13T13:39:11.910Z,56.70
2018-06-13T13:41:41.328Z,56.34
2018-06-13T13:44:10.483Z,56.28
2018-06-13T13:46:39.553Z,56.23
2018-06-13T13:49:08.697Z,56.27
2018-06-13T13:51:37.880Z,55.23
2018-06-13T13:54:07.270Z,55.30
2018-06-13T13:56:36.429Z,55.16
2018-06-13T13:59:05.697Z,55.08
2018-06-13T14:01:34.822Z,55.94
2018-06-13T14:04:03.889Z,56.06
2018-06-13T14:06:33.073Z,57.50
2018-06-13T14:09:02.155Z,55.68
2018-06-13T14:11:31.288Z,53.85
2018-06-13T14:14:00.389Z,53.85
2018-06-13T14:16:29.494Z,53.45
2018-06-13T14:18:58.686Z,52.21
2018-06-13T14:21:27.853Z,52.13
2018-06-13T14:23:56.942Z,51.18
2018-06-13T14:26:26.177Z,52.22
2018-06-13T14:28:55.485Z,50.36
2018-06-13T14:31:26.621Z,49.48
2018-06-13T14:33:55.709Z,49.99
2018-06-13T14:36:24.805Z,48.14
2018-06-13T14:38:53.929Z,49.15
2018-06-13T14:41:23.021Z,49.94
2018-06-13T14:43:52.121Z,50.15
2018-06-13T14:46:21.253Z,51.49
2018-06-13T14:48:50.349Z,50.46
2018-06-13T14:51:19.473Z,50.62
2018-06-13T14:53:51.505Z,51.05
2018-06-13T14:56:26.051Z,54.83
2018-06-13T14:58:55.241Z,51.73
2018-06-13T15:01:24.437Z,50.57
2018-06-13T15:03:53.550Z,50.87
2018-06-13T15:06:23.061Z,51.45
2018-06-13T15:08:52.221Z,50.79
2018-06-13T15:11:21.333Z,50.93
2018-06-13T15:13:50.494Z,51.42
2018-06-13T15:16:19.608Z,50.48
2018-06-13T15:18:49.522Z,50.71
2018-06-13T15:21:18.613Z,50.14
2018-06-13T15:23:47.734Z,49.77
2018-06-13T15:26:16.848Z,49.69
2018-06-13T15:28:46.030Z,51.18
2018-06-13T15:31:15.162Z,48.15
2018-06-13T15:33:44.250Z,48.39
2018-06-13T15:36:13.877Z,47.76
2018-06-13T15:38:42.973Z,48.38
2018-06-13T15:41:12.131Z,48.68
2018-06-13T15:43:41.218Z,50.02
2018-06-13T15:46:10.325Z,50.60
2018-06-13T15:48:39.405Z,50.02
2018-06-13T15:51:08.505Z,50.07
2018-06-13T15:53:37.602Z,49.76
2018-06-13T15:56:06.926Z,49.86
2018-06-13T15:58:36.041Z,50.83
2018-06-13T16:01:05.188Z,51.79
2018-06-13T16:03:34.282Z,49.69
2018-06-13T16:06:03.454Z,51.48
2018-06-13T16:08:32.550Z,51.01
2018-06-13T16:11:01.691Z,51.26
2018-06-13T16:13:30.757Z,51.64
2018-06-13T16:15:59.885Z,52.33
2018-06-13T16:18:29.014Z,50.82
2018-06-13T16:20:58.134Z,50.64
2018-06-13T16:23:27.358Z,52.30
2018-06-13T16:25:57.465Z,51.93
2018-06-13T16:28:26.566Z,51.09
2018-06-13T16:30:55.653Z,52.34
2018-06-13T16:33:24.961Z,51.79
2018-06-13T16:35:54.109Z,52.29
2018-06-13T16:38:23.170Z,50.64
2018-06-13T16:40:52.346Z,50.79
2018-06-13T16:43:21.427Z,51.37
2018-06-13T16:45:50.558Z,52.01
2018-06-13T16:48:19.673Z,52.92
2018-06-13T16:50:59.906Z,52.27
2018-06-13T16:53:53.130Z,51.65
2018-06-13T16:56:23.356Z,50.21
2018-06-13T16:58:52.544Z,51.69
2018-06-13T17:01:22.304Z,51.17
2018-06-13T17:03:52.238Z,50.77
2018-06-13T17:06:21.337Z,51.49
2018-06-13T17:08:50.437Z,52.29
2018-06-13T17:11:19.771Z,51.44
2018-06-13T17:13:48.871Z,50.78
2018-06-13T17:16:17.980Z,50.77
2018-06-13T17:18:47.617Z,52.17
2018-06-13T17:21:16.722Z,51.41
2018-06-13T17:23:45.869Z,51.40
2018-06-13T17:26:14.985Z,51.11
2018-06-13T17:28:44.072Z,51.64
2018-06-13T17:31:13.193Z,51.61
2018-06-13T17:33:42.310Z,51.45
2018-06-13T17:36:11.422Z,52.08
2018-06-13T17:38:40.546Z,52.52
2018-06-13T17:41:09.661Z,50.59
2018-06-13T17:43:38.748Z,52.61
2018-06-13T17:46:07.833Z,51.74
2018-06-13T17:48:36.921Z,52.43
2018-06-13T17:51:06.045Z,51.28
2018-06-13T17:53:35.129Z,52.23
2018-06-13T17:56:04.290Z,51.47
2018-06-13T17:58:33.422Z,51.89
2018-06-13T18:01:02.658Z,51.30
2018-06-13T18:03:31.765Z,52.23
2018-06-13T18:06:00.861Z,50.67
2018-06-13T18:08:29.946Z,51.98
2018-06-13T18:10:59.053Z,51.49
2018-06-13T18:13:28.165Z,51.59
2018-06-13T18:15:57.475Z,51.79
2018-06-13T18:18:26.561Z,51.53
2018-06-13T18:20:55.790Z,51.60
2018-06-13T18:23:25.174Z,51.24
2018-06-13T18:25:54.310Z,52.41
2018-06-13T18:28:23.486Z,52.45
2018-06-13T18:30:52.657Z,52.80
2018-06-13T18:33:21.786Z,52.40
2018-06-13T18:35:50.873Z,50.44
2018-06-13T18:38:20.849Z,50.88
2018-06-13T18:40:49.934Z,51.56
2018-06-13T18:43:23.977Z,50.94
2018-06-13T18:45:53.057Z,51.16
2018-06-13T18:48:22.142Z,51.13
2018-06-13T18:50:51.281Z,51.32
2018-06-13T18:53:21.446Z,49.78
2018-06-13T18:55:50.569Z,50.41
2018-06-13T18:58:19.691Z,49.41
2018-06-13T19:00:48.781Z,49.19
2018-06-13T19:03:17.960Z,49.05
2018-06-13T19:05:47.089Z,49.05
2018-06-13T19:08:16.217Z,50.07
2018-06-13T19:10:45.341Z,49.59
2018-06-13T19:13:14.453Z,49.70
2018-06-13T19:15:43.589Z,49.89
2018-06-13T19:18:12.973Z,50.54
2018-06-13T19:20:42.100Z,51.28
2018-06-13T19:23:11.225Z,52.31
2018-06-13T19:25:40.397Z,52.16
2018-06-13T19:28:09.649Z,51.35
2018-06-13T19:30:38.753Z,51.82
2018-06-13T19:33:07.847Z,52.77
2018-06-13T19:35:36.950Z,52.93
2018-06-13T19:38:06.055Z,53.83
2018-06-13T19:40:35.254Z,55.00
2018-06-13T19:43:08.516Z,55.55
2018-06-13T19:45:37.605Z,55.41
2018-06-13T19:48:12.090Z,55.62
2018-06-13T19:50:41.205Z,55.87
2018-06-13T19:53:15.623Z,56.44
2018-06-13T19:55:49.929Z,54.98
2018-06-13T19:58:22.102Z,56.31
2018-06-13T20:00:51.216Z,57.70
2018-06-13T20:03:25.429Z,57.81
2018-06-13T20:05:54.533Z,57.89
2018-06-13T20:08:23.614Z,58.02
2018-06-13T20:10:53.378Z,57.87
2018-06-13T20:13:27.888Z,59.02
2018-06-13T20:16:02.465Z,60.17
2018-06-13T20:18:36.924Z,59.57
2018-06-13T20:21:06.249Z,59.93
2018-06-13T20:23:35.360Z,61.52
2018-06-13T20:26:09.681Z,62.18
2018-06-13T20:29:42.757Z,59.60
2018-06-13T20:32:11.861Z,61.47
2018-06-13T20:34:40.956Z,60.60
2018-06-13T20:37:10.073Z,60.41
2018-06-13T20:39:39.184Z,61.65
2018-06-13T20:42:08.255Z,61.67
2018-06-13T20:44:37.417Z,63.61
2018-06-13T20:47:06.557Z,63.45
2018-06-13T20:49:35.649Z,63.48
2018-06-13T20:52:04.851Z,64.47
2018-06-13T20:54:34.048Z,63.88
2018-06-13T20:57:03.268Z,63.68
2018-06-13T20:59:32.341Z,64.30
2018-06-13T21:02:01.429Z,63.85
2018-06-13T21:04:30.569Z,64.07
2018-06-13T21:07:00.769Z,64.41
2018-06-13T21:09:29.857Z,64.06
2018-06-13T21:12:00.090Z,64.49
2018-06-13T21:14:29.263Z,65.42
2018-06-13T21:16:58.387Z,65.53
2018-06-13T21:19:27.478Z,66.61
2018-06-13T21:21:56.590Z,67.21
2018-06-13T21:24:25.686Z,67.81
2018-06-13T21:26:54.772Z,66.59
2018-06-13T21:29:23.856Z,66.90
2018-06-13T21:31:52.942Z,68.06
2018-06-13T21:34:22.089Z,67.41
2018-06-13T21:36:51.258Z,68.40
2018-06-13T21:39:20.345Z,69.04
2018-06-13T21:41:50.122Z,68.17
2018-06-13T21:44:19.349Z,69.30
2018-06-13T21:46:48.469Z,70.03
2018-06-13T21:49:17.550Z,70.61
2018-06-13T21:51:46.719Z,69.09
2018-06-13T21:54:15.806Z,68.25
2018-06-13T21:56:44.941Z,69.18
2018-06-13T21:59:14.069Z,67.93
2018-06-13T22:01:43.150Z,67.51
2018-06-13T22:04:12.236Z,68.92
2018-06-13T22:06:41.321Z,68.22
2018-06-13T22:09:11.549Z,68.88
2018-06-13T22:11:45.830Z,69.36
2018-06-13T22:14:14.913Z,69.06
2018-06-13T22:16:44.042Z,68.84
2018-06-13T22:19:13.144Z,69.13
2018-06-13T22:21:42.401Z,69.60
2018-06-13T22:24:12.034Z,68.79
2018-06-13T22:26:41.133Z,69.74
2018-06-13T22:29:10.286Z,70.53
2018-06-13T22:31:39.446Z,69.20
2018-06-13T22:34:08.701Z,70.03
2018-06-13T22:36:37.822Z,70.71
2018-06-13T22:39:08.966Z,69.63
2018-06-13T22:41:38.097Z,69.08
2018-06-13T22:44:07.208Z,70.65
2018-06-13T22:46:36.327Z,71.32
2018-06-13T22:49:05.406Z,70.53
2018-06-13T22:51:34.517Z,71.22
2018-06-13T22:54:03.665Z,70.81
2018-06-13T22:56:32.798Z,71.19
2018-06-13T22:59:01.887Z,71.04
2018-06-13T23:01:31.071Z,71.39
2018-06-13T23:04:00.161Z,71.34
2018-06-13T23:06:29.277Z,71.05
2018-06-13T23:08:58.366Z,71.31
2018-06-13T23:11:27.453Z,71.66
2018-06-13T23:13:56.562Z,71.76
2018-06-13T23:16:25.649Z,71.53
2018-06-13T23:18:54.767Z,72.60
2018-06-13T23:21:23.871Z,72.87
2018-06-13T23:23:52.986Z,72.28
2018-06-13T23:26:23.070Z,72.71
2018-06-13T23:28:52.173Z,72.62
2018-06-13T23:31:21.753Z,72.35
2018-06-13T23:33:50.862Z,73.15
2018-06-13T23:36:20.030Z,72.47
2018-06-13T23:38:49.389Z,73.13
2018-06-13T23:41:18.506Z,73.34
2018-06-13T23:43:47.609Z,73.60
2018-06-13T23:46:16.754Z,73.73
2018-06-13T23:48:45.869Z,74.44
2018-06-13T23:51:14.982Z,74.40
2018-06-13T23:53:44.061Z,73.75
2018-06-13T23:56:13.279Z,73.92
2018-06-13T23:58:42.377Z,73.95
